Aviation Digital Data Service (ADDS)

Output produced by METARs form (1051 UTC 16 January 2017)
found at http://aviationweather.gov/adds/metars/
 
KGSP 160829Z 1608/1706 03005KT P6SM BKN012 OVC060 
     TEMPO 1610/1612 BKN008 OVC015 
     FM161200 06004KT 4SM BR OVC008 
     FM161400 06005KT 3SM BR OVC005 
     FM161700 07005KT 6SM BR OVC006